Time;durP1;ratioP1;P1;durP2;ratioP2;P2;SDS_P1;SDS_P2;PMS_P1;PMS_P2;Temp;Humidity;BMP_temperature;BMP_pressure;BME280_temperature;BME280_humidity;BME280_pressure;Samples;Min_cycle;Max_cycle;Signal;HPM_P1;HPM_P2
2022/04/12 00:01:49;;;;;;;6.45;3.63;;;19.60;55.80;;;;;;5022807;28;88142;-61
2022/04/12 00:04:18;;;;;;;8.30;4.13;;;19.60;55.70;;;;;;5023251;28;89769;-61
2022/04/12 00:06:46;;;;;;;7.97;3.60;;;19.60;55.50;;;;;;5021769;28;88266;-60
2022/04/12 00:09:21;;;;;;;8.18;3.78;;;19.60;55.60;;;;;;5017339;27;87905;-59
2022/04/12 00:11:47;;;;;;;5.75;3.17;;;19.60;55.70;;;;;;5020963;28;87309;-60
2022/04/12 00:14:12;;;;;;;7.82;3.75;;;19.60;55.70;;;;;;5022738;28;88091;-59
2022/04/12 00:16:38;;;;;;;6.93;3.45;;;19.60;55.60;;;;;;5026399;28;87633;-59
2022/04/12 00:19:04;;;;;;;6.38;3.25;;;19.60;55.70;;;;;;5018500;28;87286;-60
2022/04/12 00:21:34;;;;;;;8.68;4.55;;;19.60;55.70;;;;;;5020267;28;90166;-60
2022/04/12 00:24:04;;;;;;;8.05;3.40;;;19.60;55.70;;;;;;5026169;28;87801;-60
2022/04/12 00:26:30;;;;;;;5.20;3.25;;;19.60;55.60;;;;;;5016598;28;88356;-59
2022/04/12 00:28:56;;;;;;;6.00;3.30;;;19.60;55.60;;;;;;5019987;27;87599;-59
2022/04/12 00:31:21;;;;;;;5.63;3.58;;;19.60;55.70;;;;;;5020411;28;88903;-59
2022/04/12 00:33:47;;;;;;;5.88;3.10;;;19.60;55.50;;;;;;5020455;28;88636;-60
2022/04/12 00:36:12;;;;;;;7.03;3.47;;;19.60;55.70;;;;;;5026889;28;87425;-59
2022/04/12 00:38:38;;;;;;;7.05;3.72;;;19.60;55.70;;;;;;5020148;28;87918;-59
2022/04/12 00:41:05;;;;;;;6.25;3.63;;;19.60;55.70;;;;;;5025118;28;87565;-59
2022/04/12 00:43:35;;;;;;;6.53;3.38;;;19.50;55.60;;;;;;5025656;28;88015;-59
2022/04/12 00:46:01;;;;;;;5.68;3.40;;;19.50;55.60;;;;;;5023177;28;87593;-60
2022/04/12 00:48:28;;;;;;;6.35;3.25;;;19.50;55.60;;;;;;5026080;28;86550;-59
2022/04/12 00:50:54;;;;;;;5.85;3.20;;;19.50;55.70;;;;;;5025315;27;88158;-60
2022/04/12 00:53:20;;;;;;;6.15;3.20;;;19.60;55.70;;;;;;5024661;28;89070;-60
2022/04/12 00:55:50;;;;;;;5.78;3.25;;;19.50;55.70;;;;;;5020171;28;88603;-61
2022/04/12 00:58:21;;;;;;;8.27;3.45;;;19.50;55.60;;;;;;5021108;28;88231;-59
2022/04/12 01:00:52;;;;;;;5.97;3.00;;;19.60;55.70;;;;;;5020638;28;88067;-62
2022/04/12 01:03:18;;;;;;;5.82;3.22;;;19.50;55.60;;;;;;5021677;28;88594;-60
2022/04/12 01:05:44;;;;;;;8.23;4.00;;;19.50;55.60;;;;;;5021059;27;87554;-60
2022/04/12 01:08:09;;;;;;;6.40;3.25;;;19.50;55.70;;;;;;5016506;28;87471;-60
2022/04/12 01:10:37;;;;;;;5.28;3.38;;;19.50;55.60;;;;;;5024347;28;91204;-60
2022/04/12 01:13:02;;;;;;;7.57;3.25;;;19.50;55.50;;;;;;5018466;28;89381;-59
2022/04/12 01:15:28;;;;;;;6.28;3.70;;;19.50;55.60;;;;;;5020682;28;87499;-60
2022/04/12 01:17:54;;;;;;;5.00;2.63;;;19.50;55.60;;;;;;5034144;27;87382;-59
2022/04/12 01:20:25;;;;;;;6.00;3.00;;;19.50;55.50;;;;;;5037181;27;89463;-59
2022/04/12 01:22:55;;;;;;;6.28;2.95;;;19.50;55.50;;;;;;5043494;27;88811;-59
2022/04/12 01:25:22;;;;;;;5.32;3.35;;;19.50;55.50;;;;;;5041747;27;87167;-59
2022/04/12 01:27:52;;;;;;;7.03;3.25;;;19.50;55.50;;;;;;5041002;27;87846;-60
2022/04/12 01:30:20;;;;;;;6.22;3.70;;;19.50;55.60;;;;;;5041367;27;89598;-59
2022/04/12 01:32:49;;;;;;;6.47;3.17;;;19.50;55.50;;;;;;5039307;27;87866;-59
2022/04/12 01:35:14;;;;;;;5.43;3.28;;;19.50;55.60;;;;;;5037165;27;87976;-59
2022/04/12 01:37:40;;;;;;;7.18;3.38;;;19.50;55.60;;;;;;5036566;27;87336;-60
2022/04/12 01:40:06;;;;;;;5.38;2.97;;;19.50;56.20;;;;;;5039157;27;87596;-59
2022/04/12 01:42:32;;;;;;;6.13;2.65;;;19.50;55.50;;;;;;5042316;27;87493;-59
2022/04/12 01:44:58;;;;;;;5.32;2.97;;;19.50;55.50;;;;;;5040983;27;87840;-60
2022/04/12 01:47:24;;;;;;;6.28;3.28;;;19.40;55.30;;;;;;5044969;27;87228;-59
2022/04/12 01:49:49;;;;;;;6.03;3.17;;;19.50;56.00;;;;;;5042224;27;87968;-60
2022/04/12 01:52:15;;;;;;;5.97;3.20;;;19.40;55.40;;;;;;5034141;27;90587;-59
2022/04/12 01:54:41;;;;;;;5.75;2.92;;;19.40;55.30;;;;;;5037799;27;87757;-59
2022/04/12 01:57:07;;;;;;;5.97;3.42;;;19.40;55.20;;;;;;5038319;27;86987;-58
2022/04/12 01:59:33;;;;;;;5.70;3.08;;;19.40;55.20;;;;;;5048998;27;88196;-59
2022/04/12 02:01:58;;;;;;;5.68;3.10;;;19.40;55.30;;;;;;5041088;27;87179;-60
2022/04/12 02:04:24;;;;;;;6.75;3.55;;;19.40;55.40;;;;;;5046271;27;87724;-59
2022/04/12 02:06:50;;;;;;;5.05;2.65;;;19.40;55.40;;;;;;5046213;27;87811;-60
2022/04/12 02:09:15;;;;;;;5.60;3.13;;;19.40;55.40;;;;;;5041287;27;88566;-61
2022/04/12 02:11:41;;;;;;;5.70;2.90;;;19.40;55.40;;;;;;5043998;27;88150;-60
2022/04/12 02:14:07;;;;;;;7.63;3.45;;;19.40;55.50;;;;;;5037971;27;87535;-60
2022/04/12 02:16:34;;;;;;;5.60;2.85;;;19.40;55.40;;;;;;5040437;27;87615;-59
2022/04/12 02:18:59;;;;;;;3.90;2.30;;;19.40;55.30;;;;;;5046818;27;90626;-60
2022/04/12 02:21:25;;;;;;;5.90;3.53;;;19.40;55.30;;;;;;5045975;27;88642;-60
2022/04/12 02:23:51;;;;;;;6.03;2.65;;;19.40;55.40;;;;;;5035579;27;87989;-60
2022/04/12 02:26:25;;;;;;;5.85;3.03;;;19.40;55.20;;;;;;5042182;27;86885;-59
2022/04/12 02:28:51;;;;;;;5.60;2.85;;;19.40;55.30;;;;;;5040143;27;91497;-60
2022/04/12 02:31:24;;;;;;;3.85;2.28;;;19.30;55.30;;;;;;5037223;27;87472;-59
2022/04/12 02:33:49;;;;;;;4.00;2.40;;;19.40;55.40;;;;;;5038803;27;89159;-59
2022/04/12 02:36:15;;;;;;;6.97;2.75;;;19.40;55.40;;;;;;5034744;27;87666;-60
2022/04/12 02:38:41;;;;;;;5.60;2.83;;;19.40;55.40;;;;;;5043035;27;91629;-60
2022/04/12 02:41:06;;;;;;;4.72;2.90;;;19.40;55.50;;;;;;5040735;27;92091;-59
2022/04/12 02:43:32;;;;;;;6.18;2.97;;;19.40;55.30;;;;;;5047155;27;86976;-60
2022/04/12 02:46:01;;;;;;;6.63;3.00;;;19.40;55.60;;;;;;5036911;27;90253;-59
2022/04/12 02:48:27;;;;;;;4.68;2.65;;;19.30;55.60;;;;;;5037444;27;90013;-61
2022/04/12 02:50:56;;;;;;;4.13;2.55;;;19.40;55.60;;;;;;5039020;27;87946;-60
2022/04/12 02:53:22;;;;;;;4.83;2.83;;;19.30;55.40;;;;;;5041007;27;87797;-60
2022/04/12 02:55:47;;;;;;;6.38;3.08;;;19.30;55.30;;;;;;5033409;27;90192;-60
2022/04/12 02:58:13;;;;;;;4.85;2.90;;;19.30;55.30;;;;;;5043063;27;88456;-60
2022/04/12 03:00:38;;;;;;;4.97;2.88;;;19.30;55.40;;;;;;5039764;27;88811;-60
2022/04/12 03:03:04;;;;;;;5.45;3.05;;;19.40;55.50;;;;;;5038625;27;87553;-60
2022/04/12 03:05:30;;;;;;;4.60;2.60;;;19.30;55.40;;;;;;5045373;27;87605;-60
2022/04/12 03:07:55;;;;;;;5.32;3.25;;;19.30;55.20;;;;;;5041636;27;87397;-61
2022/04/12 03:10:21;;;;;;;4.55;2.50;;;19.30;55.40;;;;;;5040667;27;88265;-60
2022/04/12 03:12:56;;;;;;;5.22;2.83;;;19.30;55.20;;;;;;5037504;27;87958;-60
2022/04/12 03:15:21;;;;;;;4.10;2.55;;;19.30;55.30;;;;;;5044952;27;87109;-60
2022/04/12 03:17:47;;;;;;;4.88;2.85;;;19.30;55.40;;;;;;5043069;27;87773;-59
2022/04/12 03:20:12;;;;;;;4.45;2.50;;;19.30;55.20;;;;;;5043324;27;88050;-59
2022/04/12 03:22:41;;;;;;;4.93;2.40;;;19.30;55.30;;;;;;5049221;27;88506;-59
2022/04/12 03:25:09;;;;;;;4.25;2.42;;;19.30;55.30;;;;;;5041513;27;87763;-60
2022/04/12 03:27:35;;;;;;;5.57;3.17;;;19.30;55.30;;;;;;5042500;27;91533;-60
2022/04/12 03:30:00;;;;;;;5.88;2.95;;;19.30;55.30;;;;;;5036217;27;87708;-61
2022/04/12 03:32:26;;;;;;;4.18;1.95;;;19.30;55.30;;;;;;5042581;27;87918;-60
2022/04/12 03:34:51;;;;;;;4.30;2.55;;;19.30;55.30;;;;;;5047203;27;87946;-60
2022/04/12 03:37:17;;;;;;;4.38;2.50;;;19.20;55.30;;;;;;5043623;27;87578;-60
2022/04/12 03:39:45;;;;;;;4.30;2.45;;;19.30;55.90;;;;;;5046182;27;87315;-60
2022/04/12 03:42:14;;;;;;;3.97;2.47;;;19.20;55.30;;;;;;5040409;27;88363;-60
2022/04/12 03:44:40;;;;;;;3.67;2.08;;;19.20;55.20;;;;;;5039201;27;87879;-60
2022/04/12 03:47:07;;;;;;;6.25;2.42;;;19.20;55.30;;;;;;5040905;27;90790;-59
2022/04/12 03:49:33;;;;;;;3.78;2.28;;;19.20;55.20;;;;;;5038635;27;89931;-59
2022/04/12 03:51:59;;;;;;;3.72;2.42;;;19.20;55.10;;;;;;5045258;27;87777;-60
2022/04/12 03:54:25;;;;;;;4.10;2.80;;;19.20;55.10;;;;;;5041077;27;89902;-59
2022/04/12 03:56:54;;;;;;;3.53;2.15;;;19.20;55.30;;;;;;5040504;27;88130;-59
2022/04/12 03:59:22;;;;;;;3.97;2.22;;;19.20;55.20;;;;;;5041473;27;87602;-60
2022/04/12 04:01:49;;;;;;;5.13;2.60;;;19.20;55.20;;;;;;5035658;27;88936;-60
2022/04/12 04:04:17;;;;;;;4.45;2.67;;;19.20;55.20;;;;;;5043254;27;90763;-60
2022/04/12 04:06:43;;;;;;;4.28;2.38;;;19.20;55.20;;;;;;5039929;27;91066;-59
2022/04/12 04:09:09;;;;;;;3.97;2.30;;;19.20;55.00;;;;;;5036263;27;87283;-60
2022/04/12 04:11:38;;;;;;;3.83;2.22;;;19.20;55.00;;;;;;5035840;27;89187;-60
2022/04/12 04:14:05;;;;;;;6.10;2.33;;;19.20;55.00;;;;;;5045151;27;88294;-59
2022/04/12 04:16:31;;;;;;;4.32;2.42;;;19.20;55.20;;;;;;5041835;27;88052;-60
2022/04/12 04:18:56;;;;;;;3.95;2.33;;;19.20;55.00;;;;;;5039587;27;90528;-60
2022/04/12 04:21:22;;;;;;;4.22;2.28;;;19.20;55.10;;;;;;5043538;27;87870;-60
2022/04/12 04:23:48;;;;;;;3.92;2.35;;;19.20;55.20;;;;;;5034654;27;87557;-60
2022/04/12 04:26:13;;;;;;;4.22;2.20;;;19.20;55.10;;;;;;5039987;27;87696;-60
2022/04/12 04:28:41;;;;;;;5.45;2.75;;;19.20;55.20;;;;;;5039755;27;86335;-60
2022/04/12 04:31:08;;;;;;;3.42;2.10;;;19.10;55.20;;;;;;5041522;27;87831;-60
2022/04/12 04:33:33;;;;;;;4.45;2.53;;;19.20;55.10;;;;;;5037358;27;87240;-60
2022/04/12 04:35:59;;;;;;;4.15;2.30;;;19.20;55.10;;;;;;5043019;27;92498;-60
2022/04/12 04:38:25;;;;;;;4.07;2.50;;;19.20;55.10;;;;;;5037380;27;88215;-60
2022/04/12 04:40:59;;;;;;;5.60;2.65;;;19.20;55.20;;;;;;5038860;27;87272;-60
2022/04/12 04:43:24;;;;;;;3.08;2.33;;;19.20;54.90;;;;;;5040173;27;87762;-59
2022/04/12 04:45:50;;;;;;;3.25;1.83;;;19.20;55.00;;;;;;5035337;27;91023;-59
2022/04/12 04:48:15;;;;;;;4.25;2.00;;;19.10;55.10;;;;;;5037209;27;87615;-60
2022/04/12 04:50:41;;;;;;;3.78;2.20;;;19.10;55.10;;;;;;5042412;27;87016;-60
2022/04/12 04:53:10;;;;;;;3.55;2.10;;;19.20;55.00;;;;;;5048318;27;87097;-60
2022/04/12 04:55:37;;;;;;;3.90;2.03;;;19.10;55.10;;;;;;5039570;27;87607;-60
2022/04/12 04:58:04;;;;;;;3.90;2.35;;;19.10;54.90;;;;;;5037538;27;87256;-60
2022/04/12 05:00:34;;;;;;;3.75;2.50;;;19.10;54.90;;;;;;5043462;27;88261;-60
2022/04/12 05:03:01;;;;;;;3.80;2.03;;;19.10;54.80;;;;;;5044434;27;90084;-60
2022/04/12 05:05:27;;;;;;;4.90;2.60;;;19.10;54.90;;;;;;5045423;27;88116;-59
2022/04/12 05:07:55;;;;;;;7.55;2.17;;;19.10;54.90;;;;;;5035737;27;87682;-60
2022/04/12 05:10:28;;;;;;;4.63;2.33;;;19.10;54.10;;;;;;5043988;27;86822;-58
2022/04/12 05:12:54;;;;;;;3.88;2.10;;;19.10;54.30;;;;;;5034603;27;87730;-60
2022/04/12 05:15:20;;;;;;;3.92;1.83;;;19.10;54.80;;;;;;5038840;27;91146;-60
2022/04/12 05:17:51;;;;;;;5.10;2.45;;;19.10;54.80;;;;;;5039561;27;87801;-59
2022/04/12 05:20:17;;;;;;;3.70;1.90;;;19.10;54.90;;;;;;5037854;27;87064;-60
2022/04/12 05:22:43;;;;;;;5.00;2.50;;;19.20;55.00;;;;;;5037299;27;88011;-59
2022/04/12 05:25:09;;;;;;;2.65;1.90;;;19.20;54.90;;;;;;5040734;27;91237;-59
2022/04/12 05:27:35;;;;;;;5.28;2.08;;;19.20;54.90;;;;;;5043885;27;88187;-59
2022/04/12 05:30:03;;;;;;;4.22;2.35;;;19.20;54.90;;;;;;5037831;27;88084;-59
2022/04/12 05:32:28;;;;;;;4.70;2.35;;;19.30;54.80;;;;;;5037021;27;90988;-59
2022/04/12 05:34:54;;;;;;;4.53;2.20;;;19.30;54.70;;;;;;5032835;27;88546;-59
2022/04/12 05:37:20;;;;;;;10.23;2.88;;;19.30;54.50;;;;;;5033441;27;91003;-59
2022/04/12 05:39:46;;;;;;;7.97;2.85;;;19.30;53.30;;;;;;5039283;27;87717;-59
2022/04/12 05:42:12;;;;;;;9.23;2.50;;;19.40;54.60;;;;;;5039647;27;86733;-58
2022/04/12 05:44:37;;;;;;;8.82;2.53;;;19.40;54.50;;;;;;5039950;27;88166;-59
2022/04/12 05:47:04;;;;;;;14.48;3.42;;;19.50;54.60;;;;;;5040984;27;87780;-60
2022/04/12 05:49:30;;;;;;;12.48;2.75;;;19.50;54.80;;;;;;5036607;27;88897;-59
2022/04/12 05:51:57;;;;;;;12.02;2.92;;;19.50;55.00;;;;;;5041365;27;88373;-59
2022/04/12 05:54:26;;;;;;;14.70;3.47;;;19.60;55.30;;;;;;5035135;27;92530;-59
2022/04/12 05:56:55;;;;;;;8.27;2.72;;;19.60;55.40;;;;;;5033034;27;87899;-58
2022/04/12 05:59:22;;;;;;;9.90;3.20;;;19.70;56.10;;;;;;5040654;27;87687;-61
2022/04/12 06:01:49;;;;;;;7.95;3.88;;;19.70;56.40;;;;;;5035902;27;93673;-61
2022/04/12 06:04:16;;;;;;;9.30;2.70;;;19.70;56.20;;;;;;5039055;27;89866;-60
2022/04/12 06:06:44;;;;;;;15.77;4.03;;;19.70;56.30;;;;;;5043689;27;89459;-60
2022/04/12 06:09:11;;;;;;;12.32;3.65;;;19.70;55.50;;;;;;5040713;27;87579;-60
2022/04/12 06:11:37;;;;;;;21.83;4.35;;;19.70;56.10;;;;;;5040404;27;88923;-61
2022/04/12 06:14:03;;;;;;;12.65;3.88;;;19.70;56.40;;;;;;5041389;27;88500;-60
2022/04/12 06:16:29;;;;;;;19.42;4.20;;;19.80;56.90;;;;;;5039709;27;88133;-59
2022/04/12 06:18:56;;;;;;;16.92;4.03;;;19.80;57.30;;;;;;5042472;27;88395;-61
2022/04/12 06:21:24;;;;;;;15.95;4.15;;;19.80;56.80;;;;;;5041228;27;86993;-60
2022/04/12 06:23:50;;;;;;;13.85;4.45;;;19.80;57.50;;;;;;5032003;27;87547;-61
2022/04/12 06:26:17;;;;;;;14.65;4.20;;;19.90;56.60;;;;;;5036241;27;89487;-60
2022/04/12 06:28:43;;;;;;;19.60;4.32;;;19.90;56.80;;;;;;5044544;27;88226;-60
2022/04/12 06:31:09;;;;;;;18.60;4.57;;;19.90;56.90;;;;;;5043739;27;87192;-60
2022/04/12 06:33:37;;;;;;;14.65;4.15;;;19.90;56.90;;;;;;5045263;27;88258;-60
2022/04/12 06:36:02;;;;;;;19.98;4.50;;;19.90;56.80;;;;;;5043521;27;87437;-59
2022/04/12 06:38:28;;;;;;;14.90;3.88;;;19.90;57.00;;;;;;5046233;27;88953;-60
2022/04/12 06:40:57;;;;;;;18.95;4.65;;;19.90;57.10;;;;;;5042209;27;88467;-60
2022/04/12 06:43:22;;;;;;;15.53;4.17;;;19.90;57.20;;;;;;5029914;27;88914;-60
2022/04/12 06:45:49;;;;;;;17.38;4.38;;;19.90;57.20;;;;;;4979568;27;89147;-65
2022/04/12 06:48:14;;;;;;;24.92;5.25;;;19.90;57.70;;;;;;5039594;27;87463;-64
2022/04/12 06:50:40;;;;;;;12.77;4.40;;;19.90;57.70;;;;;;5037808;27;87866;-64
2022/04/12 06:53:06;;;;;;;20.42;5.00;;;20.00;58.00;;;;;;5043294;27;91562;-64
2022/04/12 06:55:32;;;;;;;18.17;4.20;;;19.90;58.20;;;;;;5043253;27;87724;-64
2022/04/12 06:57:57;;;;;;;17.92;4.90;;;20.00;58.20;;;;;;5040394;27;87908;-64
2022/04/12 07:00:26;;;;;;;22.27;4.60;;;20.00;58.30;;;;;;5038496;27;89533;-63
2022/04/12 07:02:51;;;;;;;15.50;4.70;;;19.90;58.10;;;;;;5044270;27;89098;-64
2022/04/12 07:05:19;;;;;;;22.55;4.82;;;19.90;58.40;;;;;;5038916;27;91754;-63
2022/04/12 07:07:45;;;;;;;15.55;4.30;;;19.90;58.20;;;;;;5039920;27;87642;-63
2022/04/12 07:10:14;;;;;;;19.55;4.65;;;19.90;58.60;;;;;;5041923;27;87237;-63
2022/04/12 07:12:40;;;;;;;16.40;4.20;;;19.90;58.80;;;;;;5045989;27;87678;-64
2022/04/12 07:15:07;;;;;;;17.33;4.40;;;20.00;58.90;;;;;;5041429;27;87388;-64
2022/04/12 07:17:33;;;;;;;22.52;4.45;;;20.00;59.00;;;;;;5041975;27;87074;-63
2022/04/12 07:19:59;;;;;;;19.42;4.63;;;20.00;58.80;;;;;;5042570;27;87636;-64
2022/04/12 07:22:29;;;;;;;17.35;4.57;;;19.90;58.70;;;;;;5039987;27;91139;-65
2022/04/12 07:24:57;;;;;;;16.88;4.95;;;19.90;58.70;;;;;;5033570;27;91207;-64
2022/04/12 07:27:23;;;;;;;18.23;4.53;;;20.00;58.90;;;;;;5037226;27;87932;-64
2022/04/12 07:29:49;;;;;;;9.98;2.92;;;19.90;59.10;;;;;;5040427;27;89295;-64
2022/04/12 07:32:15;;;;;;;13.20;4.53;;;20.00;59.50;;;;;;5041834;27;87670;-64
2022/04/12 07:34:41;;;;;;;12.77;4.13;;;19.90;58.40;;;;;;5041860;27;87938;-64
2022/04/12 07:37:08;;;;;;;14.77;4.00;;;19.90;58.40;;;;;;5043375;27;87300;-63
2022/04/12 07:39:37;;;;;;;14.18;4.38;;;20.00;57.80;;;;;;5050424;27;90603;-63
2022/04/12 07:42:05;;;;;;;12.63;4.22;;;20.00;57.50;;;;;;5047939;27;88287;-63
2022/04/12 07:44:31;;;;;;;12.73;4.03;;;19.90;57.10;;;;;;5039366;27;89936;-65
2022/04/12 07:47:00;;;;;;;11.45;3.63;;;19.90;56.90;;;;;;5044674;27;87402;-66
2022/04/12 07:49:29;;;;;;;9.90;3.25;;;19.90;56.70;;;;;;5043226;27;90384;-64
2022/04/12 07:51:57;;;;;;;8.93;3.72;;;19.90;56.60;;;;;;5041769;27;89025;-64
2022/04/12 07:54:24;;;;;;;11.60;3.67;;;20.00;56.50;;;;;;5042506;27;89599;-66
2022/04/12 07:56:50;;;;;;;11.18;3.92;;;20.00;57.50;;;;;;5040356;27;88814;-65
2022/04/12 07:59:16;;;;;;;11.10;3.47;;;20.00;56.70;;;;;;5036851;27;87303;-65
2022/04/12 08:01:44;;;;;;;13.93;4.95;;;20.00;56.70;;;;;;5044547;27;88637;-65
2022/04/12 08:04:10;;;;;;;14.60;4.10;;;20.00;57.60;;;;;;5042717;27;88758;-64
2022/04/12 08:06:38;;;;;;;13.02;3.40;;;19.90;57.70;;;;;;5034902;27;87431;-64
2022/04/12 08:09:05;;;;;;;9.77;3.05;;;20.00;56.50;;;;;;5038155;27;87091;-65
2022/04/12 08:11:31;;;;;;;7.68;3.03;;;20.00;57.20;;;;;;5040681;27;90309;-64
2022/04/12 08:14:00;;;;;;;11.48;3.53;;;20.00;56.60;;;;;;5034759;27;87743;-64
2022/04/12 08:16:29;;;;;;;17.17;4.57;;;20.00;56.40;;;;;;5037690;27;88824;-65
2022/04/12 08:18:58;;;;;;;12.00;3.70;;;20.00;56.10;;;;;;5038545;27;90213;-65
2022/04/12 08:21:38;;;;;;;14.98;3.85;;;20.00;55.90;;;;;;5039334;27;91003;-65
2022/04/12 08:24:04;;;;;;;10.77;4.05;;;20.00;56.80;;;;;;5036185;27;87744;-65
2022/04/12 08:26:30;;;;;;;12.60;3.88;;;19.90;57.10;;;;;;5038155;27;87693;-65
2022/04/12 08:28:59;;;;;;;12.38;4.30;;;20.00;57.10;;;;;;5039547;27;89746;-65
2022/04/12 08:31:29;;;;;;;12.38;4.15;;;19.90;56.90;;;;;;5033373;27;91465;-64
2022/04/12 08:33:55;;;;;;;10.52;3.67;;;19.90;57.10;;;;;;5035418;27;89715;-63
2022/04/12 08:36:25;;;;;;;13.48;3.47;;;20.00;57.50;;;;;;5038737;27;87543;-64
2022/04/12 08:38:51;;;;;;;10.55;3.65;;;20.00;57.80;;;;;;5034439;27;88271;-63
2022/04/12 08:41:22;;;;;;;11.18;3.85;;;19.90;58.00;;;;;;5034931;27;88771;-64
2022/04/12 08:44:01;;;;;;;10.15;4.18;;;20.00;57.60;;;;;;5043833;27;88669;-64
2022/04/12 08:46:33;;;;;;;11.32;4.00;;;20.00;57.70;;;;;;5042085;27;87176;-64
2022/04/12 08:49:00;;;;;;;11.77;3.90;;;20.00;58.00;;;;;;5040272;27;88796;-64
2022/04/12 08:51:30;;;;;;;12.90;3.97;;;20.00;58.20;;;;;;5043627;27;87791;-64
2022/04/12 08:54:03;;;;;;;11.57;3.95;;;19.90;58.20;;;;;;5036534;27;90773;-64
2022/04/12 08:56:30;;;;;;;12.45;4.53;;;20.00;58.60;;;;;;5038587;27;88116;-63
2022/04/12 08:59:02;;;;;;;10.73;4.10;;;20.00;58.90;;;;;;5040985;27;87091;-64
2022/04/12 09:01:29;;;;;;;9.05;3.70;;;20.00;59.00;;;;;;5036940;27;89725;-64
2022/04/12 09:03:54;;;;;;;11.50;4.18;;;20.00;59.40;;;;;;5039397;27;87393;-64
2022/04/12 09:06:20;;;;;;;14.50;4.25;;;20.00;59.60;;;;;;5037121;27;88172;-64
2022/04/12 09:08:46;;;;;;;9.98;3.35;;;20.00;60.00;;;;;;5035056;27;90455;-64
2022/04/12 09:11:14;;;;;;;14.50;4.30;;;20.00;60.30;;;;;;5034305;27;88430;-65
2022/04/12 09:13:59;;;;;;;12.70;3.83;;;20.00;60.50;;;;;;5037172;27;87759;-64
2022/04/12 09:16:25;;;;;;;12.68;4.15;;;20.00;60.00;;;;;;5036480;27;87489;-65
2022/04/12 09:18:51;;;;;;;12.05;4.07;;;20.00;59.90;;;;;;5041038;27;87074;-64
2022/04/12 09:21:18;;;;;;;11.48;3.83;;;20.00;60.10;;;;;;5036676;27;87699;-64
2022/04/12 09:23:50;;;;;;;10.90;3.65;;;20.00;60.30;;;;;;5034700;27;88290;-64
2022/04/12 09:26:25;;;;;;;10.82;3.85;;;20.00;60.60;;;;;;5035601;27;87696;-64
2022/04/12 09:28:53;;;;;;;9.80;3.55;;;20.00;60.90;;;;;;5041689;27;87624;-64
2022/04/12 09:31:21;;;;;;;15.57;3.95;;;20.00;60.30;;;;;;5039914;27;91181;-64
2022/04/12 09:33:49;;;;;;;10.80;4.05;;;20.00;61.00;;;;;;5038660;27;88230;-64
2022/04/12 09:36:15;;;;;;;13.20;4.18;;;20.00;60.70;;;;;;5040855;27;87941;-65
2022/04/12 09:38:43;;;;;;;10.70;3.65;;;20.00;60.20;;;;;;5042698;27;87740;-64
2022/04/12 09:41:18;;;;;;;12.25;4.03;;;20.00;61.00;;;;;;5041438;27;87547;-64
2022/04/12 09:44:17;;;;;;;9.60;3.63;;;20.10;60.70;;;;;;5044420;27;88573;-64
2022/04/12 09:46:44;;;;;;;7.60;3.77;;;20.10;60.60;;;;;;5041722;27;87520;-64
2022/04/12 09:49:11;;;;;;;11.70;4.10;;;20.10;60.60;;;;;;5045592;27;86815;-64
2022/04/12 09:51:38;;;;;;;9.77;4.03;;;20.10;60.90;;;;;;5045581;27;88336;-64
2022/04/12 09:54:08;;;;;;;12.25;3.85;;;20.10;60.60;;;;;;5042851;27;87595;-64
2022/04/12 09:56:36;;;;;;;10.95;4.32;;;20.10;61.10;;;;;;5038683;27;88379;-64
2022/04/12 09:59:09;;;;;;;10.98;3.72;;;20.10;61.10;;;;;;5040543;27;89024;-64
2022/04/12 10:01:39;;;;;;;11.82;3.47;;;20.10;61.50;;;;;;5034856;27;90943;-64
2022/04/12 10:04:09;;;;;;;16.75;4.63;;;20.10;62.30;;;;;;5040000;27;87289;-65
2022/04/12 10:06:38;;;;;;;;;;;20.10;61.90;;;;;;5040753;27;87722;-64
2022/04/12 10:09:05;;;;;;;9.30;3.28;;;20.10;62.20;;;;;;5041073;27;87335;-64
2022/04/12 10:11:31;;;;;;;11.98;4.35;;;20.10;62.10;;;;;;5042566;27;87684;-64
2022/04/12 10:14:01;;;;;;;11.82;3.88;;;20.10;62.00;;;;;;5043515;27;87802;-65
2022/04/12 10:16:27;;;;;;;16.02;3.53;;;20.10;62.30;;;;;;5038969;27;88115;-66
2022/04/12 10:18:54;;;;;;;13.07;3.83;;;20.20;62.30;;;;;;5032723;27;87799;-65
2022/04/12 10:21:22;;;;;;;9.90;3.47;;;20.20;61.90;;;;;;5032223;27;89286;-65
2022/04/12 10:23:54;;;;;;;10.02;3.58;;;20.10;61.70;;;;;;5035145;27;88196;-65
2022/04/12 10:26:22;;;;;;;12.48;3.92;;;20.10;62.00;;;;;;5031463;27;88062;-66
2022/04/12 10:28:59;;;;;;;13.55;3.33;;;20.10;61.80;;;;;;5036853;27;88099;-65
2022/04/12 10:31:30;;;;;;;13.07;4.30;;;20.10;61.40;;;;;;5037152;27;95333;-65
2022/04/12 10:34:03;;;;;;;11.63;3.72;;;20.10;60.70;;;;;;5040147;27;87846;-65
2022/04/12 10:37:08;;;;;;;12.05;4.30;;;20.10;61.70;;;;;;5038442;27;87900;-67
2022/04/12 10:39:44;;;;;;;12.20;3.72;;;20.10;61.30;;;;;;5041585;27;89948;-65
2022/04/12 10:42:14;;;;;;;10.57;3.60;;;20.20;61.20;;;;;;5037729;27;88262;-65
2022/04/12 10:44:50;;;;;;;10.20;3.33;;;20.20;61.50;;;;;;5039823;27;88185;-65
2022/04/12 10:47:35;;;;;;;12.55;3.72;;;20.20;61.20;;;;;;5037542;27;89125;-65
2022/04/12 10:50:07;;;;;;;10.02;3.65;;;20.20;61.60;;;;;;5041590;27;88267;-65
2022/04/12 10:52:37;;;;;;;9.55;3.88;;;20.20;60.90;;;;;;5039916;27;91128;-65
2022/04/12 10:55:07;;;;;;;8.57;3.55;;;20.20;60.30;;;;;;5042473;27;88343;-65
2022/04/12 10:57:33;;;;;;;15.63;3.50;;;20.20;61.30;;;;;;5040625;27;87648;-65
2022/04/12 11:00:08;;;;;;;12.55;4.30;;;20.20;60.70;;;;;;5037194;27;91060;-65
2022/04/12 11:02:41;;;;;;;8.63;3.50;;;20.20;60.60;;;;;;5006423;27;91590;-65
2022/04/12 11:05:28;;;;;;;11.75;3.88;;;20.20;60.10;;;;;;5032742;27;88602;-64
2022/04/12 11:07:56;;;;;;;;;;;20.20;60.50;;;;;;5034737;27;88856;-64
2022/04/12 11:10:23;;;;;;;11.70;3.33;;;20.20;60.70;;;;;;5037935;27;87615;-65
2022/04/12 11:13:03;;;;;;;12.52;4.05;;;20.10;60.40;;;;;;5034788;27;90091;-65
2022/04/12 11:15:32;;;;;;;8.38;3.30;;;20.10;60.40;;;;;;5030733;27;91784;-64
2022/04/12 11:18:16;;;;;;;13.00;3.25;;;20.10;61.20;;;;;;5030866;27;89526;-65
2022/04/12 11:20:45;;;;;;;10.85;3.65;;;20.20;60.90;;;;;;5036599;27;87784;-65
2022/04/12 11:23:14;;;;;;;11.50;3.15;;;20.20;60.80;;;;;;5035924;27;87846;-64
2022/04/12 11:25:50;;;;;;;12.00;3.60;;;20.20;60.80;;;;;;5034725;27;90796;-65
2022/04/12 11:28:25;;;;;;;10.68;2.85;;;20.20;61.10;;;;;;5034919;27;87675;-65
2022/04/12 11:30:56;;;;;;;8.13;2.90;;;20.20;61.60;;;;;;5036484;27;88269;-65
2022/04/12 11:33:32;;;;;;;10.73;3.25;;;20.20;60.10;;;;;;5033709;27;88096;-65
2022/04/12 11:35:59;;;;;;;10.35;2.45;;;20.20;60.40;;;;;;5041637;27;90147;-64
2022/04/12 11:38:25;;;;;;;9.20;2.65;;;20.20;60.70;;;;;;5036188;27;89167;-65
2022/04/12 11:40:51;;;;;;;10.98;3.03;;;20.10;60.30;;;;;;5051659;27;88433;-65
2022/04/12 11:43:24;;;;;;;8.98;3.17;;;20.10;60.00;;;;;;5038584;27;90840;-64
2022/04/12 11:45:55;;;;;;;6.45;2.70;;;20.10;60.20;;;;;;5037501;27;87387;-63
2022/04/12 11:48:21;;;;;;;8.80;3.08;;;20.10;60.10;;;;;;5036064;27;87118;-64
2022/04/12 11:50:55;;;;;;;9.10;3.00;;;20.10;60.20;;;;;;5032183;27;90459;-64
2022/04/12 11:53:21;;;;;;;9.77;2.95;;;20.10;59.80;;;;;;5035726;27;88296;-64
2022/04/12 11:55:47;;;;;;;7.55;2.30;;;20.10;59.90;;;;;;5034293;27;88515;-65
2022/04/12 11:58:14;;;;;;;8.75;2.50;;;20.10;60.30;;;;;;5033282;27;87094;-64
2022/04/12 12:00:40;;;;;;;6.63;2.58;;;20.20;60.10;;;;;;5028692;27;88784;-65
2022/04/12 12:03:15;;;;;;;12.82;3.28;;;20.20;60.40;;;;;;5027691;27;91895;-65
2022/04/12 12:05:41;;;;;;;6.63;2.63;;;20.20;60.70;;;;;;5039956;27;90936;-64
2022/04/12 12:08:06;;;;;;;7.47;2.60;;;20.30;61.90;;;;;;5035098;27;87983;-64
2022/04/12 12:10:35;;;;;;;5.47;2.45;;;20.30;62.50;;;;;;5037038;27;88416;-65
2022/04/12 12:13:07;;;;;;;7.77;2.70;;;20.30;63.50;;;;;;5033376;27;89948;-64
2022/04/12 12:15:34;;;;;;;10.23;2.65;;;20.30;63.80;;;;;;5032264;27;90668;-65
2022/04/12 12:18:06;;;;;;;13.35;2.92;;;20.30;64.70;;;;;;5035263;27;87835;-64
2022/04/12 12:20:37;;;;;;;8.88;2.67;;;20.40;64.80;;;;;;5038914;27;86715;-64
2022/04/12 12:23:07;;;;;;;9.02;2.60;;;20.30;64.40;;;;;;5033822;27;88700;-65
2022/04/12 12:25:46;;;;;;;4.70;2.30;;;20.30;64.00;;;;;;5030654;27;91015;-65
2022/04/12 12:28:17;;;;;;;8.35;3.10;;;20.30;63.80;;;;;;5039038;27;89106;-65
2022/04/12 12:30:44;;;;;;;6.22;2.78;;;20.30;64.40;;;;;;5035001;27;87772;-65
2022/04/12 12:33:11;;;;;;;8.48;3.22;;;20.30;65.10;;;;;;5035979;27;88130;-65
2022/04/12 12:35:41;;;;;;;7.10;3.00;;;20.40;65.60;;;;;;5035938;27;87153;-65
2022/04/12 12:38:09;;;;;;;10.45;2.92;;;20.40;64.70;;;;;;5034545;27;87457;-65
2022/04/12 12:40:36;;;;;;;13.88;2.80;;;20.40;63.90;;;;;;5035288;27;87696;-65
2022/04/12 12:43:07;;;;;;;8.77;2.92;;;20.40;63.50;;;;;;5033922;27;90582;-65
2022/04/12 12:45:42;;;;;;;9.90;2.67;;;20.40;65.20;;;;;;5038608;27;88737;-65
2022/04/12 12:48:09;;;;;;;7.88;2.78;;;20.40;66.10;;;;;;5040215;27;87708;-65